Village Mills, Texas
Current Conditions -  °F | °C
As of 6:15 AM on Sunday 21 Dec 2014 (Local Time) from KBMT Reporting Station
Overcast Overcast  
Wind Chill: 42°   Ceiling: 2200
Heat Index: 42°   Visibility: 7mi
Dew Point: 42°   Wind: 3mph
Humidity: 100%   Direction: 360°N
Pressure: 30.14"   Gusts: NA
Location:  30.49°N, 94.4°W
Report Text: KBMT 211215Z AUTO 36003KT 7SM OVC022 05/05 A3014 RMK AO2 T00530053
Loading
Personal Weather Stations






























Interactive Weather Map New forecast layout! Learn more

10-Day Weather Forecast

Advertisements
Track Severe Weather on mobile